createdAt,value
2018-12-14T00:00:35.163Z,65.12
2018-12-14T00:03:39.785Z,65.50
2018-12-14T00:06:44.330Z,65.93
2018-12-14T00:09:48.897Z,65.37
2018-12-14T00:12:53.686Z,65.62
2018-12-14T00:15:58.275Z,65.17
2018-12-14T00:19:02.829Z,65.65
2018-12-14T00:22:07.565Z,65.53
2018-12-14T00:25:12.195Z,65.61
2018-12-14T00:28:16.730Z,65.81
2018-12-14T00:31:21.418Z,65.96
2018-12-14T00:34:26.022Z,65.58
2018-12-14T00:37:30.492Z,65.80
2018-12-14T00:40:35.001Z,65.74
2018-12-14T00:43:39.607Z,65.57
2018-12-14T00:46:45.162Z,65.32
2018-12-14T00:49:49.726Z,65.75
2018-12-14T00:52:54.384Z,64.77
2018-12-14T00:55:58.939Z,65.93
2018-12-14T00:59:03.551Z,65.06
2018-12-14T01:02:11.783Z,64.99
2018-12-14T01:05:16.349Z,65.19
2018-12-14T01:08:20.996Z,64.90
2018-12-14T01:11:25.557Z,64.66
2018-12-14T01:14:30.084Z,65.63
2018-12-14T01:17:34.729Z,65.27
2018-12-14T01:20:39.318Z,65.64
2018-12-14T01:23:44.025Z,63.92
2018-12-14T01:26:48.628Z,64.74
2018-12-14T01:29:53.225Z,64.61
2018-12-14T01:32:57.809Z,64.31
2018-12-14T01:36:02.505Z,64.15
2018-12-14T01:39:08.685Z,64.54
2018-12-14T01:42:13.390Z,64.97
2018-12-14T01:45:18.151Z,64.71
2018-12-14T01:48:22.827Z,64.52
2018-12-14T01:51:27.324Z,65.21
2018-12-14T01:54:31.875Z,65.40
2018-12-14T01:57:36.944Z,64.97
2018-12-14T02:00:41.612Z,64.25
2018-12-14T02:03:46.145Z,65.11
2018-12-14T02:06:50.709Z,65.62
2018-12-14T02:09:55.561Z,64.95
2018-12-14T02:13:00.187Z,65.30
2018-12-14T02:16:04.778Z,64.69
2018-12-14T02:19:09.561Z,65.04
2018-12-14T02:22:14.061Z,64.81
2018-12-14T02:25:18.601Z,64.32
2018-12-14T02:28:23.236Z,64.58
2018-12-14T02:31:27.893Z,64.76
2018-12-14T02:34:32.639Z,65.20
2018-12-14T02:37:37.225Z,65.12
2018-12-14T02:40:41.925Z,64.90
2018-12-14T02:43:46.585Z,64.43
2018-12-14T02:46:51.081Z,64.53
2018-12-14T02:49:55.636Z,64.77
2018-12-14T02:53:00.262Z,65.24
2018-12-14T02:56:04.800Z,65.22
2018-12-14T02:59:09.494Z,64.34
2018-12-14T03:02:14.227Z,64.98
2018-12-14T03:05:18.870Z,65.87
2018-12-14T03:08:23.399Z,65.78
2018-12-14T03:11:27.954Z,65.85
2018-12-14T03:14:32.808Z,64.97
2018-12-14T03:17:37.763Z,65.08
2018-12-14T03:20:42.521Z,64.68
2018-12-14T03:23:47.065Z,64.40
2018-12-14T03:26:51.640Z,64.70
2018-12-14T03:29:56.292Z,65.07
2018-12-14T03:33:00.867Z,65.06
2018-12-14T03:36:05.541Z,64.37
2018-12-14T03:39:10.284Z,64.47
2018-12-14T03:42:14.784Z,65.53
2018-12-14T03:45:23.046Z,65.61
2018-12-14T03:48:27.608Z,65.30
2018-12-14T03:51:32.246Z,64.68
2018-12-14T03:54:37.025Z,64.98
2018-12-14T03:57:41.603Z,65.41
2018-12-14T04:00:46.509Z,64.84
2018-12-14T04:03:51.253Z,65.37
2018-12-14T04:06:55.878Z,64.76
2018-12-14T04:10:00.403Z,65.21
2018-12-14T04:13:05.158Z,64.66
2018-12-14T04:16:09.722Z,64.61
2018-12-14T04:19:14.384Z,64.77
2018-12-14T04:22:19.018Z,64.38
2018-12-14T04:25:24.266Z,64.68
2018-12-14T04:28:28.885Z,64.68
2018-12-14T04:31:33.593Z,64.61
2018-12-14T04:34:38.346Z,64.65
2018-12-14T04:37:42.976Z,65.49
2018-12-14T04:40:47.545Z,65.10
2018-12-14T04:43:57.113Z,64.73
2018-12-14T04:47:01.648Z,64.65
2018-12-14T04:50:06.800Z,65.42
2018-12-14T04:53:11.497Z,65.73
2018-12-14T04:56:16.309Z,64.90
2018-12-14T04:59:20.912Z,64.69
2018-12-14T05:02:25.563Z,65.22
2018-12-14T05:05:30.571Z,64.33
2018-12-14T05:08:35.063Z,65.76
2018-12-14T05:11:40.071Z,65.08
2018-12-14T05:14:45.377Z,64.88
2018-12-14T05:17:50.024Z,64.93
2018-12-14T05:20:54.556Z,65.32
2018-12-14T05:23:59.152Z,64.90
2018-12-14T05:27:03.944Z,64.80
2018-12-14T05:30:09.420Z,65.20
2018-12-14T05:33:14.443Z,65.69
2018-12-14T05:36:19.166Z,65.00
2018-12-14T05:39:23.850Z,65.10
2018-12-14T05:42:28.381Z,65.63
2018-12-14T05:45:32.864Z,65.05
2018-12-14T05:48:37.538Z,64.33
2018-12-14T05:51:42.132Z,64.68
2018-12-14T05:54:46.755Z,65.39
2018-12-14T05:57:51.476Z,64.75
2018-12-14T06:00:56.109Z,64.67
2018-12-14T06:04:00.883Z,65.39
2018-12-14T06:07:05.726Z,64.75
2018-12-14T06:10:12.781Z,65.50
2018-12-14T06:13:17.292Z,64.40
2018-12-14T06:16:22.037Z,64.72
2018-12-14T06:19:26.546Z,64.93
2018-12-14T06:22:31.159Z,64.89
2018-12-14T06:25:35.861Z,64.17
2018-12-14T06:28:40.431Z,65.03
2018-12-14T06:31:45.052Z,64.88
2018-12-14T06:34:49.510Z,64.71
2018-12-14T06:37:54.077Z,64.83
2018-12-14T06:40:58.735Z,64.63
2018-12-14T06:44:03.429Z,64.33
2018-12-14T06:47:07.973Z,63.89
2018-12-14T06:50:12.555Z,64.81
2018-12-14T06:53:17.304Z,64.00
2018-12-14T06:56:22.031Z,64.65
2018-12-14T06:59:26.710Z,64.32
2018-12-14T07:02:31.749Z,64.13
2018-12-14T07:05:36.374Z,63.92
2018-12-14T07:08:41.052Z,64.84
2018-12-14T07:11:45.594Z,64.89
2018-12-14T07:14:50.519Z,64.51
2018-12-14T07:17:55.352Z,64.84
2018-12-14T07:21:00.382Z,65.05
2018-12-14T07:24:05.088Z,64.06
2018-12-14T07:27:09.825Z,65.46
2018-12-14T07:30:14.404Z,65.27
2018-12-14T07:33:19.036Z,64.94
2018-12-14T07:36:23.671Z,65.53
2018-12-14T07:39:34.885Z,65.10
2018-12-14T07:42:39.497Z,64.74
2018-12-14T07:45:44.155Z,65.17
2018-12-14T07:48:48.609Z,65.38
2018-12-14T07:51:53.116Z,64.96
2018-12-14T07:54:57.821Z,63.54
2018-12-14T07:58:02.541Z,64.19
2018-12-14T08:01:07.753Z,64.20
2018-12-14T08:04:12.710Z,64.36
2018-12-14T08:07:17.424Z,64.19
2018-12-14T08:10:22.480Z,64.49
2018-12-14T08:13:27.040Z,63.76
2018-12-14T08:16:31.630Z,64.15
2018-12-14T08:19:36.148Z,64.11
2018-12-14T08:22:41.094Z,64.34
2018-12-14T08:25:45.891Z,63.42
2018-12-14T08:28:50.502Z,63.53
2018-12-14T08:31:55.061Z,62.87
2018-12-14T08:34:59.622Z,63.01
2018-12-14T08:38:04.430Z,63.41
2018-12-14T08:41:09.165Z,63.52
2018-12-14T08:44:13.772Z,63.40
2018-12-14T08:47:18.435Z,63.24
2018-12-14T08:50:23.249Z,63.25
2018-12-14T08:53:28.333Z,63.04
2018-12-14T08:56:32.949Z,62.79
2018-12-14T08:59:37.619Z,62.86
2018-12-14T09:02:42.178Z,62.62
2018-12-14T09:05:46.733Z,62.17
2018-12-14T09:08:52.557Z,63.65
2018-12-14T09:11:57.274Z,62.87
2018-12-14T09:15:01.842Z,62.53
2018-12-14T09:18:06.517Z,61.67
2018-12-14T09:21:11.131Z,63.04
2018-12-14T09:24:16.560Z,62.80
2018-12-14T09:27:21.204Z,62.19
2018-12-14T09:30:25.782Z,63.03
2018-12-14T09:33:30.563Z,61.63
2018-12-14T09:36:35.207Z,61.37
2018-12-14T09:39:39.655Z,61.35
2018-12-14T09:42:44.138Z,62.05
2018-12-14T09:45:48.806Z,62.06
2018-12-14T09:48:53.535Z,61.95
2018-12-14T09:51:58.174Z,60.92
2018-12-14T09:55:02.736Z,61.29
2018-12-14T09:58:08.929Z,61.12
2018-12-14T10:01:14.460Z,60.69
2018-12-14T10:04:19.255Z,60.93
2018-12-14T10:07:24.084Z,60.87
2018-12-14T10:10:28.833Z,61.20
2018-12-14T10:13:33.688Z,60.12
2018-12-14T10:16:38.524Z,59.99
2018-12-14T10:19:43.124Z,59.37
2018-12-14T10:22:47.661Z,60.33
2018-12-14T10:25:52.129Z,59.96
2018-12-14T10:28:56.799Z,60.01
2018-12-14T10:32:01.296Z,59.50
2018-12-14T10:35:07.949Z,59.77
2018-12-14T10:38:12.625Z,59.70
2018-12-14T10:41:17.368Z,58.95
2018-12-14T10:44:21.960Z,59.33
2018-12-14T10:47:26.617Z,60.03
2018-12-14T10:50:38.676Z,59.48
2018-12-14T10:53:37.891Z,59.13
2018-12-14T10:56:42.652Z,59.95
2018-12-14T10:59:47.294Z,59.12
2018-12-14T11:02:52.113Z,59.61
2018-12-14T11:05:56.706Z,59.48
2018-12-14T11:09:01.395Z,59.42
2018-12-14T11:12:06.072Z,59.30
2018-12-14T11:15:10.842Z,59.35
2018-12-14T11:18:15.443Z,58.83
2018-12-14T11:21:20.200Z,59.68
2018-12-14T11:24:24.798Z,59.98
2018-12-14T11:27:29.509Z,60.06
2018-12-14T11:30:34.121Z,60.43
2018-12-14T11:33:38.744Z,60.15
2018-12-14T11:36:43.247Z,60.50
2018-12-14T11:39:47.878Z,60.15
2018-12-14T11:42:52.494Z,60.50
2018-12-14T11:45:57.107Z,60.35
2018-12-14T11:49:01.702Z,60.70
2018-12-14T11:52:06.487Z,60.16
2018-12-14T11:55:11.919Z,59.70
2018-12-14T11:58:17.777Z,60.09
2018-12-14T12:01:22.580Z,60.93
2018-12-14T12:04:27.140Z,59.83
2018-12-14T12:07:31.737Z,59.67
2018-12-14T12:10:36.343Z,60.25
2018-12-14T12:13:41.107Z,60.41
2018-12-14T12:16:45.908Z,60.94
2018-12-14T12:19:50.365Z,60.62
2018-12-14T12:22:54.988Z,60.65
2018-12-14T12:25:59.713Z,60.08
2018-12-14T12:29:04.229Z,60.48
2018-12-14T12:32:08.765Z,61.02
2018-12-14T12:35:13.438Z,60.59
2018-12-14T12:38:18.081Z,60.26
2018-12-14T12:41:22.805Z,59.73
2018-12-14T12:44:33.326Z,60.19
2018-12-14T12:47:34.118Z,59.85
2018-12-14T12:50:38.670Z,59.94
2018-12-14T12:53:43.458Z,60.43
2018-12-14T12:56:48.067Z,59.90
2018-12-14T12:59:52.727Z,60.03
2018-12-14T13:02:57.323Z,60.55
2018-12-14T13:06:01.920Z,60.04
2018-12-14T13:09:07.591Z,60.73
2018-12-14T13:12:12.365Z,61.01
2018-12-14T13:15:17.015Z,60.49
2018-12-14T13:18:23.386Z,60.78
2018-12-14T13:21:28.200Z,61.01
2018-12-14T13:24:32.971Z,60.14
2018-12-14T13:27:37.618Z,60.67
2018-12-14T13:30:42.568Z,60.64
2018-12-14T13:33:47.272Z,60.34
2018-12-14T13:36:51.803Z,60.39
2018-12-14T13:39:56.444Z,60.51
2018-12-14T13:43:01.057Z,60.04
2018-12-14T13:46:05.676Z,60.61
2018-12-14T13:49:10.805Z,60.49
2018-12-14T13:52:15.563Z,60.22
2018-12-14T13:55:20.109Z,61.09
2018-12-14T13:58:24.801Z,61.38
2018-12-14T14:01:29.489Z,61.28
2018-12-14T14:04:35.910Z,60.79
2018-12-14T14:07:40.744Z,60.47
2018-12-14T14:10:45.316Z,60.81
2018-12-14T14:13:49.865Z,61.06
2018-12-14T14:16:54.802Z,61.09
2018-12-14T14:19:59.439Z,60.92
2018-12-14T14:23:03.969Z,61.57
2018-12-14T14:26:08.714Z,60.82
2018-12-14T14:29:13.301Z,61.59
2018-12-14T14:32:17.906Z,61.19
2018-12-14T14:35:22.716Z,61.87
2018-12-14T14:38:27.279Z,61.50
2018-12-14T14:41:31.876Z,61.65
2018-12-14T14:44:36.604Z,62.30
2018-12-14T14:47:41.335Z,60.98
2018-12-14T14:50:46.447Z,61.20
2018-12-14T14:53:51.039Z,61.48
2018-12-14T14:56:55.701Z,62.35
2018-12-14T15:00:00.388Z,61.44
2018-12-14T15:03:05.158Z,61.72
2018-12-14T15:06:09.869Z,61.95
2018-12-14T15:09:14.762Z,62.44
2018-12-14T15:12:19.383Z,62.47
2018-12-14T15:15:23.990Z,62.74
2018-12-14T15:18:28.600Z,62.45
2018-12-14T15:21:33.360Z,61.62
2018-12-14T15:24:37.979Z,61.73
2018-12-14T15:27:42.609Z,61.77
2018-12-14T15:30:47.407Z,62.21
2018-12-14T15:33:52.348Z,61.53
2018-12-14T15:36:57.142Z,61.46
2018-12-14T15:40:01.728Z,62.23
2018-12-14T15:43:06.416Z,61.57
2018-12-14T15:46:11.065Z,61.13
2018-12-14T15:49:15.752Z,61.49
2018-12-14T15:52:20.452Z,61.97
2018-12-14T15:55:25.126Z,61.38
2018-12-14T15:58:29.746Z,61.84
2018-12-14T16:01:34.357Z,62.41
2018-12-14T16:04:38.923Z,61.06
2018-12-14T16:07:43.496Z,60.98
2018-12-14T16:10:48.062Z,61.18
2018-12-14T16:13:52.649Z,61.11
2018-12-14T16:16:57.188Z,62.03
2018-12-14T16:20:02.098Z,61.88
2018-12-14T16:23:09.283Z,62.19
2018-12-14T16:26:14.217Z,62.20
2018-12-14T16:29:18.848Z,62.13
2018-12-14T16:32:23.505Z,62.02
2018-12-14T16:35:28.202Z,63.03
2018-12-14T16:38:32.746Z,61.57
2018-12-14T16:41:37.352Z,61.90
2018-12-14T16:44:42.126Z,61.42
2018-12-14T16:47:46.707Z,61.97
2018-12-14T16:50:51.367Z,62.40
2018-12-14T16:54:06.479Z,62.63
2018-12-14T16:57:11.044Z,62.53
2018-12-14T17:00:15.683Z,62.65
2018-12-14T17:03:20.272Z,62.96
2018-12-14T17:06:24.998Z,63.05
2018-12-14T17:09:29.605Z,62.24
2018-12-14T17:15:50.477Z,62.73
2018-12-14T17:18:55.076Z,63.04
2018-12-14T17:21:59.625Z,62.19
2018-12-14T17:25:04.437Z,62.31
2018-12-14T17:28:09.012Z,62.62
2018-12-14T17:31:13.519Z,62.60
2018-12-14T17:34:18.090Z,62.27
2018-12-14T17:37:22.670Z,63.15
2018-12-14T17:40:27.206Z,63.42
2018-12-14T17:43:31.751Z,62.79
2018-12-14T17:46:36.439Z,63.33
2018-12-14T17:49:41.042Z,62.70
2018-12-14T17:52:45.626Z,62.91
2018-12-14T17:55:50.199Z,64.81
2018-12-14T17:58:54.738Z,63.16
2018-12-14T18:01:59.338Z,63.97
2018-12-14T18:05:04.087Z,62.58
2018-12-14T18:08:08.623Z,63.38
2018-12-14T18:11:13.121Z,62.99
2018-12-14T18:14:17.707Z,62.29
2018-12-14T18:17:22.451Z,62.80
2018-12-14T18:20:27.059Z,63.91
2018-12-14T18:23:31.733Z,62.90
2018-12-14T18:26:36.401Z,61.84
2018-12-14T18:29:40.953Z,62.79
2018-12-14T18:32:45.540Z,63.24
2018-12-14T18:35:50.249Z,63.46
2018-12-14T18:38:54.801Z,63.94
2018-12-14T18:41:59.324Z,63.37
2018-12-14T18:45:04.292Z,63.46
2018-12-14T18:48:08.874Z,62.98
2018-12-14T18:51:13.410Z,62.26
2018-12-14T18:54:18.079Z,62.37
2018-12-14T18:57:22.700Z,62.88
2018-12-14T19:00:28.161Z,62.34
2018-12-14T19:03:32.702Z,63.35
2018-12-14T19:06:37.256Z,62.95
2018-12-14T19:09:41.831Z,63.93
2018-12-14T19:12:46.365Z,63.15
2018-12-14T19:15:51.054Z,62.57
2018-12-14T19:18:55.592Z,63.22
2018-12-14T19:22:00.242Z,63.05
2018-12-14T19:25:05.785Z,63.53
2018-12-14T19:28:10.353Z,63.38
2018-12-14T19:31:15.069Z,62.36
2018-12-14T19:34:19.632Z,62.44
2018-12-14T19:37:24.259Z,63.57
2018-12-14T19:40:28.830Z,63.50
2018-12-14T19:43:33.301Z,62.66
2018-12-14T19:49:52.448Z,63.99
2018-12-14T19:52:57.029Z,63.80
2018-12-14T19:56:01.546Z,63.91
2018-12-14T19:59:06.216Z,63.32
2018-12-14T20:02:11.062Z,64.79
2018-12-14T20:05:15.896Z,63.95
2018-12-14T20:08:20.633Z,64.18
2018-12-14T20:11:25.258Z,64.29
2018-12-14T20:14:30.050Z,63.53
2018-12-14T20:17:34.626Z,64.06
2018-12-14T20:20:39.254Z,64.26
2018-12-14T20:23:43.930Z,63.83
2018-12-14T20:26:48.766Z,64.26
2018-12-14T20:29:53.383Z,64.04
2018-12-14T20:32:58.511Z,64.16
2018-12-14T20:36:03.202Z,63.85
2018-12-14T20:39:08.715Z,64.58
2018-12-14T20:42:13.414Z,64.75
2018-12-14T20:45:18.106Z,64.39
2018-12-14T20:48:22.769Z,64.39
2018-12-14T20:51:27.446Z,65.04
2018-12-14T20:54:32.056Z,64.59
2018-12-14T20:57:37.191Z,65.02
2018-12-14T21:00:41.815Z,65.43
2018-12-14T21:03:46.517Z,64.61
2018-12-14T21:06:51.092Z,64.15
2018-12-14T21:09:55.741Z,64.93
2018-12-14T21:13:00.318Z,65.08
2018-12-14T21:16:04.977Z,65.18
2018-12-14T21:19:09.714Z,64.55
2018-12-14T21:22:15.331Z,65.54
2018-12-14T21:25:20.249Z,65.78
2018-12-14T21:28:25.025Z,65.81
2018-12-14T21:31:29.599Z,65.27
2018-12-14T21:34:34.160Z,64.94
2018-12-14T21:37:38.795Z,65.35
2018-12-14T21:40:43.401Z,65.92
2018-12-14T21:43:48.080Z,66.17
2018-12-14T21:46:52.854Z,66.47
2018-12-14T21:53:14.649Z,65.70
2018-12-14T21:56:19.585Z,66.38
2018-12-14T21:59:24.290Z,66.29
2018-12-14T22:02:29.158Z,66.14
2018-12-14T22:05:34.118Z,66.31
2018-12-14T22:08:38.804Z,65.75
2018-12-14T22:11:43.399Z,66.39
2018-12-14T22:14:48.014Z,66.15
2018-12-14T22:17:53.136Z,65.54
2018-12-14T22:20:57.964Z,65.95
2018-12-14T22:24:02.629Z,65.80
2018-12-14T22:27:07.360Z,66.19
2018-12-14T22:30:12.442Z,66.42
2018-12-14T22:33:17.034Z,66.23
2018-12-14T22:36:21.722Z,66.48
2018-12-14T22:39:26.807Z,66.34
2018-12-14T22:42:31.698Z,66.51
2018-12-14T22:45:36.380Z,66.88
2018-12-14T22:48:41.036Z,66.67
2018-12-14T22:51:45.610Z,66.16
2018-12-14T22:54:50.103Z,66.14
2018-12-14T22:57:54.833Z,66.38
2018-12-14T23:00:59.420Z,66.34
2018-12-14T23:04:04.413Z,67.05
2018-12-14T23:07:09.158Z,66.76
2018-12-14T23:10:13.661Z,67.03
2018-12-14T23:13:18.307Z,67.15
2018-12-14T23:16:22.870Z,67.06
2018-12-14T23:19:27.447Z,67.10
2018-12-14T23:22:31.981Z,67.32
2018-12-14T23:25:37.522Z,67.72
2018-12-14T23:28:42.081Z,68.14
2018-12-14T23:31:46.798Z,67.46
2018-12-14T23:34:51.523Z,67.52
2018-12-14T23:37:56.196Z,66.89
2018-12-14T23:41:00.794Z,67.40
2018-12-14T23:44:05.424Z,67.98
2018-12-14T23:47:10.023Z,68.04
2018-12-14T23:50:14.591Z,68.33
2018-12-14T23:53:19.436Z,67.80
2018-12-14T23:56:24.129Z,67.98
2018-12-14T23:59:28.729Z,67.26
